Time;durP1;ratioP1;P1;durP2;ratioP2;P2;SDS_P1;SDS_P2;PMS_P1;PMS_P2;Temp;Humidity;BMP_temperature;BMP_pressure;BME280_temperature;BME280_humidity;BME280_pressure;Samples;Min_cycle;Max_cycle;Signal;HPM_P1;HPM_P2
2023/02/28 00:00:00;;;;;;;3.58;1.40;;;16.90;32.90;;;;;;5072275;28;20236;-67
2023/02/28 00:02:27;;;;;;;2.33;1.10;;;17.00;33.00;;;;;;5072211;28;20443;-64
2023/02/28 00:05:00;;;;;;;3.33;1.20;;;16.90;32.90;;;;;;5071789;28;20214;-63
2023/02/28 00:07:28;;;;;;;4.07;1.50;;;16.90;32.90;;;;;;5071959;28;20218;-64
2023/02/28 00:09:55;;;;;;;2.33;1.23;;;16.90;32.90;;;;;;5071940;28;20286;-63
2023/02/28 00:12:22;;;;;;;3.03;1.35;;;16.90;33.00;;;;;;5071919;28;20708;-63
2023/02/28 00:14:49;;;;;;;1.60;1.20;;;16.90;33.00;;;;;;5072132;28;20201;-63
2023/02/28 00:17:20;;;;;;;3.25;1.20;;;16.90;33.00;;;;;;5071856;28;20700;-63
2023/02/28 00:19:48;;;;;;;3.60;1.35;;;16.90;33.00;;;;;;5071802;28;20222;-66
2023/02/28 00:22:16;;;;;;;2.63;1.58;;;16.90;33.00;;;;;;5071859;28;20305;-62
2023/02/28 00:24:43;;;;;;;2.90;1.38;;;16.90;33.00;;;;;;5071956;28;20183;-62
2023/02/28 00:27:10;;;;;;;3.47;1.38;;;16.90;33.10;;;;;;5071775;28;20276;-65
2023/02/28 00:29:37;;;;;;;4.50;1.63;;;16.90;33.00;;;;;;5071717;28;20232;-65
2023/02/28 00:32:05;;;;;;;4.05;1.50;;;16.90;33.10;;;;;;5071286;28;20219;-65
2023/02/28 00:34:37;;;;;;;4.53;1.63;;;16.90;33.10;;;;;;5071980;28;20186;-65
2023/02/28 00:37:06;;;;;;;2.40;1.45;;;16.90;33.10;;;;;;5072017;28;20305;-62
2023/02/28 00:39:35;;;;;;;3.83;1.63;;;16.80;33.00;;;;;;5071941;28;20627;-62
2023/02/28 00:42:03;;;;;;;2.45;1.60;;;16.80;33.00;;;;;;5071947;28;20234;-63
2023/02/28 00:44:30;;;;;;;3.47;1.25;;;16.80;33.10;;;;;;5071544;28;20237;-63
2023/02/28 00:46:57;;;;;;;4.45;1.50;;;16.90;33.10;;;;;;5071781;28;20230;-63
2023/02/28 00:49:25;;;;;;;2.90;1.70;;;16.80;33.00;;;;;;5071810;28;20187;-63
2023/02/28 00:51:54;;;;;;;4.68;1.73;;;16.80;33.00;;;;;;5071447;28;20714;-62
2023/02/28 00:54:22;;;;;;;2.03;1.27;;;16.80;33.00;;;;;;5071588;28;20534;-67
2023/02/28 00:56:50;;;;;;;3.10;1.50;;;16.80;33.00;;;;;;5073243;28;20187;-64
2023/02/28 00:59:18;;;;;;;3.95;1.50;;;16.80;33.00;;;;;;5075392;28;20237;-65
2023/02/28 01:01:46;;;;;;;2.42;1.48;;;16.80;33.00;;;;;;5074926;28;20754;-65
2023/02/28 01:04:14;;;;;;;4.13;1.65;;;16.80;33.00;;;;;;5075238;28;20183;-64
2023/02/28 01:06:41;;;;;;;3.58;1.45;;;16.80;33.00;;;;;;5075030;28;20222;-64
2023/02/28 01:09:11;;;;;;;3.33;1.45;;;16.80;33.00;;;;;;5074839;28;20657;-64
2023/02/28 01:11:38;;;;;;;2.60;1.58;;;16.70;32.90;;;;;;5075041;28;20187;-67
2023/02/28 01:14:06;;;;;;;5.75;1.95;;;16.80;33.00;;;;;;5075254;28;20194;-66
2023/02/28 01:16:33;;;;;;;2.10;1.33;;;16.70;32.90;;;;;;5074776;28;20727;-67
2023/02/28 01:19:00;;;;;;;1.40;1.30;;;16.70;32.90;;;;;;5074914;28;20215;-66
2023/02/28 01:21:27;;;;;;;3.05;1.60;;;16.80;33.00;;;;;;5074572;28;20234;-65
2023/02/28 01:23:57;;;;;;;1.83;1.27;;;16.70;32.90;;;;;;5074618;28;20777;-66
2023/02/28 01:26:26;;;;;;;3.58;1.55;;;16.70;32.90;;;;;;5074727;28;20292;-64
2023/02/28 01:28:54;;;;;;;2.78;1.63;;;16.70;32.90;;;;;;5075011;28;20219;-66
2023/02/28 01:31:22;;;;;;;2.72;1.40;;;16.70;32.90;;;;;;5074844;28;20683;-67
2023/02/28 01:33:49;;;;;;;2.67;1.38;;;16.70;32.90;;;;;;5074668;28;20252;-65
2023/02/28 01:36:21;;;;;;;2.88;1.20;;;16.70;32.90;;;;;;5074739;28;20191;-66
2023/02/28 01:38:48;;;;;;;2.70;1.58;;;16.70;33.60;;;;;;5074699;28;20260;-65
2023/02/28 01:41:18;;;;;;;2.00;1.65;;;16.70;32.90;;;;;;5074529;28;20190;-62
2023/02/28 01:44:02;;;;;;;4.05;1.70;;;16.70;32.90;;;;;;5074676;28;20218;-67
2023/02/28 01:46:30;;;;;;;3.65;1.67;;;16.70;32.90;;;;;;5074408;28;20226;-65
2023/02/28 01:49:06;;;;;;;3.17;1.67;;;16.60;32.80;;;;;;5074414;28;20264;-67
2023/02/28 01:51:38;;;;;;;2.72;1.40;;;16.70;32.90;;;;;;5074680;28;20190;-67
2023/02/28 01:54:13;;;;;;;2.55;1.70;;;16.60;32.80;;;;;;5074328;28;20272;-64
2023/02/28 01:56:43;;;;;;;3.80;1.83;;;16.70;32.90;;;;;;5072754;28;20694;-66
2023/02/28 01:59:14;;;;;;;2.97;1.70;;;16.60;32.80;;;;;;5061974;28;20601;-67
2023/02/28 02:01:41;;;;;;;1.77;1.40;;;16.60;32.80;;;;;;5073861;28;20187;-66
2023/02/28 02:04:08;;;;;;;3.42;1.67;;;16.60;32.80;;;;;;5073853;28;20215;-64
2023/02/28 02:06:39;;;;;;;2.20;1.50;;;16.60;32.80;;;;;;5073685;28;20219;-65
2023/02/28 02:09:06;;;;;;;2.85;1.83;;;16.60;32.80;;;;;;5073341;28;20232;-66
2023/02/28 02:11:35;;;;;;;3.33;1.67;;;16.60;32.80;;;;;;5073702;28;20252;-66
2023/02/28 02:14:32;;;;;;;2.60;1.60;;;16.60;32.80;;;;;;5074110;28;20295;-63
2023/02/28 02:17:15;;;;;;;2.00;1.52;;;16.60;32.80;;;;;;5073522;28;20194;-67
2023/02/28 02:20:20;;;;;;;2.15;1.55;;;16.60;32.80;;;;;;5073826;28;20226;-67
2023/02/28 02:23:26;;;;;;;2.47;1.50;;;16.60;32.80;;;;;;5073699;28;20214;-65
2023/02/28 02:25:56;;;;;;;2.83;1.85;;;16.60;32.90;;;;;;5073610;28;20214;-64
2023/02/28 02:29:14;;;;;;;2.72;1.55;;;16.50;32.80;;;;;;5073829;28;20265;-62
2023/02/28 02:32:21;;;;;;;4.22;1.60;;;16.50;32.80;;;;;;5030999;28;20670;-63
2023/02/28 02:35:00;;;;;;;2.88;1.95;;;16.50;32.80;;;;;;5073549;28;20244;-63
2023/02/28 02:37:37;;;;;;;1.92;1.55;;;16.50;32.80;;;;;;5073508;28;20214;-64
2023/02/28 02:40:13;;;;;;;2.47;1.50;;;16.50;32.80;;;;;;5073183;28;20190;-62
2023/02/28 02:42:46;;;;;;;4.22;1.70;;;16.50;32.80;;;;;;5073049;28;20215;-64
2023/02/28 02:45:18;;;;;;;2.50;1.38;;;16.50;32.80;;;;;;5073186;28;20191;-66
2023/02/28 02:47:46;;;;;;;2.92;1.50;;;16.50;32.80;;;;;;5072823;28;20234;-63
2023/02/28 02:50:20;;;;;;;3.60;1.63;;;16.50;32.80;;;;;;5073281;28;20244;-62
2023/02/28 02:52:52;;;;;;;3.70;1.40;;;16.50;32.80;;;;;;5073156;28;20226;-66
2023/02/28 02:55:21;;;;;;;2.95;1.50;;;16.50;32.80;;;;;;5072858;28;20283;-62
2023/02/28 02:57:52;;;;;;;4.82;1.70;;;16.50;32.80;;;;;;5072815;28;20762;-63
2023/02/28 03:00:24;;;;;;;2.05;1.67;;;16.50;32.80;;;;;;5073271;28;20239;-67
2023/02/28 03:02:55;;;;;;;4.45;1.65;;;16.40;32.70;;;;;;5072789;28;20633;-65
2023/02/28 03:05:26;;;;;;;2.28;1.30;;;16.50;32.80;;;;;;5072664;28;20621;-65
2023/02/28 03:07:53;;;;;;;3.67;1.60;;;16.50;32.80;;;;;;5072531;28;20746;-64
2023/02/28 03:10:39;;;;;;;2.65;1.40;;;16.50;32.80;;;;;;5073212;28;20194;-62
2023/02/28 03:13:41;;;;;;;3.20;1.50;;;16.50;32.80;;;;;;5072896;28;20218;-64
2023/02/28 03:16:29;;;;;;;3.22;1.48;;;16.40;32.80;;;;;;5072428;28;20194;-64
2023/02/28 03:19:12;;;;;;;3.42;1.42;;;16.50;32.80;;;;;;5072653;28;20267;-63
2023/02/28 03:21:50;;;;;;;4.30;1.90;;;16.50;32.80;;;;;;5072469;28;20229;-65
2023/02/28 03:24:22;;;;;;;1.88;1.38;;;16.50;32.90;;;;;;5072663;28;20252;-64
2023/02/28 03:26:56;;;;;;;3.42;1.70;;;16.50;32.80;;;;;;5072346;28;20219;-65
2023/02/28 03:29:29;;;;;;;3.33;1.40;;;16.40;32.80;;;;;;5072319;28;20186;-62
2023/02/28 03:32:04;;;;;;;4.13;1.42;;;16.40;32.80;;;;;;5072443;28;20190;-62
2023/02/28 03:34:35;;;;;;;4.43;2.05;;;16.40;32.80;;;;;;5072452;28;20193;-63
2023/02/28 03:37:10;;;;;;;1.95;1.30;;;16.40;32.80;;;;;;5072456;28;20182;-63
2023/02/28 03:39:41;;;;;;;2.40;1.45;;;16.40;32.80;;;;;;5072235;28;20676;-66
2023/02/28 03:42:12;;;;;;;2.33;1.70;;;16.40;32.80;;;;;;5072444;28;20195;-62
2023/02/28 03:44:42;;;;;;;3.50;1.63;;;16.40;32.80;;;;;;5072467;28;20236;-62
2023/02/28 03:47:13;;;;;;;3.63;1.63;;;16.40;32.70;;;;;;5072271;28;20392;-62
2023/02/28 03:49:47;;;;;;;2.90;1.63;;;16.40;32.80;;;;;;5072371;28;20252;-64
2023/02/28 03:52:18;;;;;;;3.60;1.60;;;16.40;32.80;;;;;;5072040;28;20543;-63
2023/02/28 03:54:48;;;;;;;2.20;1.65;;;16.40;32.80;;;;;;5072354;28;20191;-63
2023/02/28 03:57:23;;;;;;;2.47;1.75;;;16.40;32.80;;;;;;5072282;28;20186;-62
2023/02/28 03:59:57;;;;;;;2.13;1.70;;;16.40;32.70;;;;;;5070001;28;20195;-66
2023/02/28 04:02:25;;;;;;;3.67;1.63;;;16.40;32.80;;;;;;5060696;28;20223;-64
2023/02/28 04:04:52;;;;;;;2.72;1.60;;;16.30;32.60;;;;;;5063031;28;20203;-64
2023/02/28 04:07:20;;;;;;;2.60;1.20;;;16.40;32.70;;;;;;5071995;28;20233;-64
2023/02/28 04:09:47;;;;;;;3.92;1.55;;;16.40;32.70;;;;;;5055884;28;20199;-64
2023/02/28 04:12:14;;;;;;;1.83;1.10;;;16.40;32.70;;;;;;5052046;28;20242;-64
2023/02/28 04:14:41;;;;;;;2.47;1.27;;;16.40;32.80;;;;;;5052147;28;20229;-67
2023/02/28 04:17:08;;;;;;;3.58;1.42;;;16.30;32.70;;;;;;5051997;28;20237;-63
2023/02/28 04:19:35;;;;;;;3.08;1.50;;;16.30;32.70;;;;;;5051936;28;20220;-64
2023/02/28 04:22:02;;;;;;;2.60;1.50;;;16.40;32.80;;;;;;5051757;28;20257;-65
2023/02/28 04:24:31;;;;;;;2.05;1.48;;;16.30;33.30;;;;;;5051941;28;20199;-66
2023/02/28 04:26:59;;;;;;;3.33;1.45;;;16.30;32.70;;;;;;5051637;28;20261;-66
2023/02/28 04:29:28;;;;;;;2.35;1.52;;;16.30;32.70;;;;;;5052020;28;20230;-65
2023/02/28 04:31:57;;;;;;;4.30;1.50;;;16.30;32.70;;;;;;5053781;28;20195;-64
2023/02/28 04:34:24;;;;;;;3.58;1.92;;;16.30;32.70;;;;;;5055802;28;20220;-64
2023/02/28 04:36:54;;;;;;;1.35;1.25;;;16.30;32.60;;;;;;5055919;28;20249;-63
2023/02/28 04:39:22;;;;;;;3.25;1.60;;;16.30;32.60;;;;;;5055577;28;20312;-65
2023/02/28 04:41:50;;;;;;;4.82;1.50;;;16.30;32.60;;;;;;5055470;28;20249;-66
2023/02/28 04:44:18;;;;;;;4.70;1.85;;;16.30;32.60;;;;;;5055227;28;20261;-66
2023/02/28 04:46:45;;;;;;;4.18;1.45;;;16.30;32.60;;;;;;5055643;28;20215;-65
2023/02/28 04:49:13;;;;;;;3.47;1.33;;;16.30;32.60;;;;;;5055824;28;20277;-65
2023/02/28 04:51:40;;;;;;;2.38;1.60;;;16.30;32.60;;;;;;5055585;28;20191;-63
2023/02/28 04:54:08;;;;;;;2.22;1.25;;;16.30;32.70;;;;;;5055282;28;20280;-65
2023/02/28 04:56:35;;;;;;;1.90;1.38;;;16.30;32.60;;;;;;5055584;28;20192;-63
2023/02/28 04:59:03;;;;;;;1.98;1.45;;;16.30;32.60;;;;;;5055378;28;20298;-63
2023/02/28 05:01:33;;;;;;;1.80;1.50;;;16.30;32.60;;;;;;5055425;28;20183;-62
2023/02/28 05:04:02;;;;;;;4.15;1.55;;;16.20;32.50;;;;;;5054963;28;20221;-63
2023/02/28 05:06:31;;;;;;;4.80;1.33;;;16.30;32.60;;;;;;5054940;28;20207;-62
2023/02/28 05:08:59;;;;;;;1.92;1.52;;;16.30;32.60;;;;;;5055236;28;20625;-62
2023/02/28 05:11:33;;;;;;;2.47;1.70;;;16.30;32.60;;;;;;5055224;28;20188;-62
2023/02/28 05:14:00;;;;;;;2.70;1.67;;;16.20;32.50;;;;;;5055248;28;20219;-62
2023/02/28 05:16:29;;;;;;;4.25;1.70;;;16.30;32.60;;;;;;5054854;28;20191;-65
2023/02/28 05:18:56;;;;;;;2.67;1.45;;;16.30;32.60;;;;;;5054735;28;20273;-64
2023/02/28 05:21:29;;;;;;;1.65;1.30;;;16.20;32.50;;;;;;5054568;28;20227;-63
2023/02/28 05:23:57;;;;;;;6.22;1.73;;;16.30;32.60;;;;;;5054701;28;20273;-62
2023/02/28 05:26:25;;;;;;;3.33;1.60;;;16.20;32.60;;;;;;5054837;28;20191;-62
2023/02/28 05:28:52;;;;;;;3.53;1.35;;;16.20;32.60;;;;;;5054536;28;20696;-63
2023/02/28 05:31:19;;;;;;;5.78;1.50;;;16.20;32.60;;;;;;5054547;28;20230;-65
2023/02/28 05:33:48;;;;;;;2.00;1.45;;;16.20;32.50;;;;;;5054437;28;20215;-65
2023/02/28 05:36:15;;;;;;;2.30;1.73;;;16.20;32.60;;;;;;5054949;28;20241;-67
2023/02/28 05:38:42;;;;;;;4.47;1.80;;;16.20;32.60;;;;;;5054671;28;20285;-66
2023/02/28 05:41:10;;;;;;;3.08;1.42;;;16.20;32.50;;;;;;5054656;28;20188;-64
2023/02/28 05:43:38;;;;;;;2.72;1.67;;;16.20;32.60;;;;;;5052819;28;20717;-66
2023/02/28 05:46:06;;;;;;;2.83;2.13;;;16.20;32.60;;;;;;5054713;28;20241;-64
2023/02/28 05:48:34;;;;;;;4.45;1.88;;;16.30;32.70;;;;;;5054400;28;20291;-66
2023/02/28 05:51:03;;;;;;;4.25;1.55;;;16.30;32.70;;;;;;5054408;28;20187;-66
2023/02/28 05:53:31;;;;;;;2.40;1.33;;;16.30;32.60;;;;;;5054045;28;20900;-66
2023/02/28 05:55:58;;;;;;;2.25;1.33;;;16.30;32.60;;;;;;5054349;28;20191;-65
2023/02/28 05:58:30;;;;;;;3.05;1.50;;;16.40;32.60;;;;;;5054547;28;20220;-66
2023/02/28 06:00:57;;;;;;;4.55;1.70;;;16.40;32.60;;;;;;5054007;28;20187;-66
2023/02/28 06:03:25;;;;;;;3.35;1.42;;;16.50;32.60;;;;;;5054238;28;20216;-63
2023/02/28 06:05:52;;;;;;;2.60;1.35;;;16.50;32.60;;;;;;5054125;28;20192;-67
2023/02/28 06:08:20;;;;;;;3.17;1.35;;;16.60;32.60;;;;;;5053742;28;20231;-65
2023/02/28 06:10:47;;;;;;;2.33;1.30;;;16.70;32.60;;;;;;5054209;28;20246;-66
2023/02/28 06:13:15;;;;;;;1.70;1.20;;;16.70;32.50;;;;;;5053985;28;20220;-62
2023/02/28 06:15:42;;;;;;;1.80;1.13;;;16.80;32.50;;;;;;5053798;28;20220;-62
2023/02/28 06:18:09;;;;;;;2.40;1.27;;;16.80;32.50;;;;;;5053911;28;20224;-63
2023/02/28 06:20:36;;;;;;;2.58;1.52;;;16.90;32.50;;;;;;5053731;28;20283;-66
2023/02/28 06:23:03;;;;;;;2.33;1.25;;;16.90;32.40;;;;;;5054075;28;20224;-62
2023/02/28 06:25:32;;;;;;;3.03;1.70;;;17.00;32.50;;;;;;5053752;28;20687;-64
2023/02/28 06:27:59;;;;;;;2.13;1.55;;;17.00;32.40;;;;;;5053627;28;20231;-66
2023/02/28 06:30:28;;;;;;;2.38;1.70;;;17.10;33.10;;;;;;5053458;28;20241;-64
2023/02/28 06:32:55;;;;;;;2.15;1.35;;;17.10;32.40;;;;;;5053644;28;20221;-63
2023/02/28 06:35:22;;;;;;;2.50;1.45;;;17.10;32.30;;;;;;5053610;28;20187;-65
2023/02/28 06:37:50;;;;;;;1.65;1.40;;;17.20;32.40;;;;;;5053294;28;20216;-63
2023/02/28 06:40:17;;;;;;;3.95;1.75;;;17.20;32.30;;;;;;5053467;28;20233;-65
2023/02/28 06:42:45;;;;;;;2.65;1.35;;;17.30;32.40;;;;;;5053103;28;20265;-64
2023/02/28 06:45:13;;;;;;;3.92;1.48;;;17.30;32.30;;;;;;5053035;28;20184;-67
2023/02/28 06:47:41;;;;;;;1.77;1.55;;;17.30;32.30;;;;;;5053201;28;20655;-62
2023/02/28 06:50:10;;;;;;;1.75;1.50;;;17.40;32.30;;;;;;5052942;28;20238;-64
2023/02/28 06:52:37;;;;;;;2.38;1.38;;;17.40;32.30;;;;;;5053424;28;20233;-64
2023/02/28 06:55:06;;;;;;;4.28;1.85;;;17.50;32.40;;;;;;5052873;28;20242;-64
2023/02/28 06:57:35;;;;;;;3.78;1.65;;;17.50;32.40;;;;;;5052842;28;20678;-66
2023/02/28 07:00:07;;;;;;;2.28;1.30;;;17.50;32.30;;;;;;5053199;28;20192;-63
2023/02/28 07:02:35;;;;;;;2.47;1.60;;;17.50;32.20;;;;;;5053084;28;20249;-65
2023/02/28 07:05:02;;;;;;;3.60;1.63;;;17.60;32.30;;;;;;5052962;28;20188;-63
2023/02/28 07:07:29;;;;;;;3.72;1.75;;;17.60;32.30;;;;;;5052902;28;20627;-63
2023/02/28 07:09:56;;;;;;;3.33;1.50;;;17.60;32.20;;;;;;5053075;28;20195;-62
2023/02/28 07:12:23;;;;;;;3.03;1.45;;;17.60;32.20;;;;;;5052612;28;20188;-65
2023/02/28 07:14:50;;;;;;;3.00;1.63;;;17.60;32.20;;;;;;5052504;28;20269;-62
2023/02/28 07:17:19;;;;;;;2.38;1.73;;;17.70;32.30;;;;;;5052595;28;20245;-64
2023/02/28 07:19:46;;;;;;;2.65;1.60;;;17.70;32.40;;;;;;5052392;28;20659;-63
2023/02/28 07:22:13;;;;;;;2.80;1.50;;;17.70;32.20;;;;;;5052764;28;20199;-63
2023/02/28 07:24:40;;;;;;;2.47;1.50;;;17.80;32.30;;;;;;5052922;28;20215;-63
2023/02/28 07:27:07;;;;;;;3.33;1.60;;;17.80;32.30;;;;;;5052385;28;20241;-67
2023/02/28 07:29:34;;;;;;;2.13;1.38;;;17.80;32.30;;;;;;5052637;28;20273;-63
2023/02/28 07:32:01;;;;;;;3.17;1.50;;;17.80;32.20;;;;;;5052606;28;20239;-64
2023/02/28 07:34:30;;;;;;;3.63;1.98;;;17.90;32.30;;;;;;5052583;28;20215;-65
2023/02/28 07:36:57;;;;;;;2.60;1.40;;;17.90;32.30;;;;;;5052649;28;20261;-63
2023/02/28 07:39:24;;;;;;;5.60;1.63;;;17.90;32.30;;;;;;5052495;28;20219;-63
2023/02/28 07:41:51;;;;;;;2.30;1.30;;;17.90;32.20;;;;;;5051984;28;20192;-62
2023/02/28 07:44:18;;;;;;;4.20;1.65;;;17.90;32.30;;;;;;5051991;28;20219;-65
2023/02/28 07:46:45;;;;;;;2.88;1.55;;;17.90;32.30;;;;;;5049906;28;20256;-62
2023/02/28 07:49:12;;;;;;;2.63;1.38;;;18.00;32.40;;;;;;5053353;28;20285;-62
2023/02/28 07:51:41;;;;;;;4.90;1.80;;;18.00;32.30;;;;;;5055699;28;20669;-66
2023/02/28 07:54:08;;;;;;;5.03;1.90;;;18.00;32.30;;;;;;5056976;28;20226;-67
2023/02/28 07:56:35;;;;;;;2.88;2.08;;;18.00;32.40;;;;;;5057917;28;20191;-67
2023/02/28 07:59:02;;;;;;;2.47;1.63;;;18.00;32.40;;;;;;5056033;28;20636;-65
2023/02/28 08:01:30;;;;;;;4.97;1.95;;;18.00;32.50;;;;;;5051066;28;20192;-62
2023/02/28 08:03:57;;;;;;;5.75;1.85;;;18.00;32.70;;;;;;5064183;28;20584;-67
2023/02/28 08:06:25;;;;;;;4.13;1.60;;;17.90;32.70;;;;;;5071344;28;20195;-66
2023/02/28 08:08:55;;;;;;;2.78;1.63;;;17.90;32.70;;;;;;5074820;28;20230;-64
2023/02/28 08:11:23;;;;;;;5.30;1.80;;;18.00;32.90;;;;;;5075270;28;20186;-64
2023/02/28 08:13:50;;;;;;;3.03;1.40;;;18.00;32.90;;;;;;5074917;28;20226;-64
2023/02/28 08:16:21;;;;;;;3.80;1.80;;;18.00;33.00;;;;;;5074674;28;20240;-66
2023/02/28 08:18:49;;;;;;;4.25;1.98;;;18.00;32.90;;;;;;5075140;28;20585;-65
2023/02/28 08:21:16;;;;;;;6.35;2.33;;;18.00;33.00;;;;;;5074665;28;20233;-67
2023/02/28 08:23:43;;;;;;;3.47;1.58;;;18.00;33.10;;;;;;5074950;28;20275;-66
2023/02/28 08:26:12;;;;;;;6.47;1.83;;;18.00;33.10;;;;;;5074924;28;20187;-61
2023/02/28 08:28:39;;;;;;;3.65;1.88;;;18.10;33.20;;;;;;5074604;28;20704;-64
2023/02/28 08:31:09;;;;;;;4.38;1.75;;;18.10;33.20;;;;;;5074507;28;20191;-63
2023/02/28 08:33:38;;;;;;;5.85;1.50;;;18.10;33.20;;;;;;5074651;28;20719;-63
2023/02/28 08:36:07;;;;;;;4.35;1.60;;;18.10;33.40;;;;;;5071266;28;20186;-66
2023/02/28 08:38:34;;;;;;;3.25;1.50;;;18.10;33.50;;;;;;5074314;28;20268;-65
2023/02/28 08:41:02;;;;;;;4.57;1.50;;;18.10;33.50;;;;;;5074136;28;20233;-63
2023/02/28 08:43:31;;;;;;;5.45;1.85;;;18.10;33.60;;;;;;5069465;28;20230;-65
2023/02/28 08:45:58;;;;;;;6.60;1.65;;;18.20;33.60;;;;;;5062603;28;20199;-62
2023/02/28 08:48:26;;;;;;;5.00;1.40;;;18.10;33.50;;;;;;5062025;28;20222;-62
2023/02/28 08:50:57;;;;;;;3.70;1.38;;;18.10;33.80;;;;;;5074146;28;20183;-62
2023/02/28 08:53:24;;;;;;;5.75;1.73;;;18.10;33.70;;;;;;5058823;28;20223;-61
2023/02/28 08:55:57;;;;;;;5.47;1.45;;;18.10;33.50;;;;;;5054043;28;20184;-63
2023/02/28 08:58:24;;;;;;;2.90;1.30;;;18.20;33.60;;;;;;5054117;28;20219;-63
2023/02/28 09:00:53;;;;;;;4.00;1.50;;;18.20;33.60;;;;;;5063970;28;20193;-63
2023/02/28 09:03:21;;;;;;;4.70;1.70;;;18.20;33.50;;;;;;5073937;28;20218;-64
2023/02/28 09:05:56;;;;;;;7.35;1.50;;;18.20;33.60;;;;;;5074354;28;20191;-64
2023/02/28 09:08:24;;;;;;;4.35;1.50;;;18.20;33.60;;;;;;5073972;28;20254;-64
2023/02/28 09:10:51;;;;;;;4.57;1.63;;;18.20;33.60;;;;;;5073931;28;20195;-64
2023/02/28 09:13:19;;;;;;;3.80;1.50;;;18.20;33.60;;;;;;5074130;28;20637;-63
2023/02/28 09:15:46;;;;;;;4.45;2.17;;;18.20;33.60;;;;;;5067382;28;20257;-66
2023/02/28 09:18:15;;;;;;;3.05;1.63;;;18.20;33.60;;;;;;5068791;28;20272;-62
2023/02/28 09:20:42;;;;;;;2.55;1.50;;;18.20;33.60;;;;;;5066986;28;20269;-62
2023/02/28 09:23:11;;;;;;;2.42;1.45;;;18.20;33.60;;;;;;5064245;28;20651;-62
2023/02/28 09:25:39;;;;;;;4.38;1.33;;;18.20;33.70;;;;;;5073704;28;20211;-65
2023/02/28 09:28:06;;;;;;;3.63;1.70;;;18.20;33.70;;;;;;5073581;28;20265;-63
2023/02/28 09:30:33;;;;;;;3.00;1.30;;;18.20;33.70;;;;;;5073174;28;20202;-64
2023/02/28 09:33:00;;;;;;;5.32;1.70;;;18.20;33.70;;;;;;5073586;28;20187;-62
2023/02/28 09:35:30;;;;;;;3.28;1.40;;;18.20;33.70;;;;;;5073401;28;20187;-64
2023/02/28 09:37:58;;;;;;;3.80;1.58;;;18.20;33.90;;;;;;5073020;28;20651;-64
2023/02/28 09:40:26;;;;;;;3.15;1.60;;;18.20;34.00;;;;;;5073712;28;20244;-61
2023/02/28 09:42:56;;;;;;;4.78;1.70;;;18.20;34.00;;;;;;5073137;28;20232;-62
2023/02/28 09:45:28;;;;;;;3.65;1.40;;;18.20;34.00;;;;;;5073440;28;20187;-67
2023/02/28 09:47:59;;;;;;;3.75;1.45;;;18.20;34.00;;;;;;5073417;28;20236;-62
2023/02/28 09:50:34;;;;;;;4.47;1.60;;;18.20;34.00;;;;;;5073520;28;20538;-62
2023/02/28 09:53:04;;;;;;;4.43;1.58;;;18.20;34.00;;;;;;5072989;28;20239;-63
2023/02/28 09:55:38;;;;;;;2.35;1.25;;;18.20;34.00;;;;;;5073324;28;20187;-62
2023/02/28 09:58:05;;;;;;;2.38;1.20;;;18.20;34.00;;;;;;5072986;28;20789;-64
2023/02/28 10:00:38;;;;;;;6.15;1.58;;;18.20;34.20;;;;;;5073093;28;20187;-63
2023/02/28 10:03:24;;;;;;;3.83;1.73;;;18.20;34.40;;;;;;5073247;28;20240;-62
2023/02/28 10:05:57;;;;;;;5.05;2.13;;;18.30;34.50;;;;;;5073041;28;20285;-64
2023/02/28 10:08:27;;;;;;;6.22;2.22;;;18.30;34.90;;;;;;5073143;28;20226;-62
2023/02/28 10:10:58;;;;;;;4.40;2.45;;;18.30;34.60;;;;;;5072644;28;20726;-64
2023/02/28 10:13:33;;;;;;;7.03;2.70;;;18.30;34.60;;;;;;5065761;28;20227;-63
2023/02/28 10:16:04;;;;;;;4.47;2.45;;;18.30;34.60;;;;;;5069720;28;20227;-66
2023/02/28 10:18:38;;;;;;;5.55;1.98;;;18.40;34.60;;;;;;5072676;28;20222;-63
2023/02/28 10:21:07;;;;;;;3.38;2.00;;;18.40;34.50;;;;;;5072259;28;20234;-63
2023/02/28 10:23:36;;;;;;;6.00;2.25;;;18.40;34.60;;;;;;5072306;28;20650;-63
2023/02/28 10:26:12;;;;;;;6.50;2.33;;;18.40;34.60;;;;;;5072310;28;20199;-61
2023/02/28 10:28:40;;;;;;;4.90;2.00;;;18.40;34.60;;;;;;5071610;28;20226;-62
2023/02/28 10:31:12;;;;;;;4.13;1.80;;;18.40;34.50;;;;;;5071265;28;20187;-63
2023/02/28 10:33:39;;;;;;;4.07;1.77;;;18.50;34.60;;;;;;5072302;28;20299;-65
2023/02/28 10:36:14;;;;;;;3.85;1.70;;;18.50;34.70;;;;;;5072311;28;20187;-63
2023/02/28 10:38:41;;;;;;;4.82;2.22;;;18.50;34.70;;;;;;5072567;28;20275;-65
2023/02/28 10:41:11;;;;;;;4.60;1.88;;;18.50;34.60;;;;;;5072235;28;20245;-64
2023/02/28 10:43:38;;;;;;;8.27;1.90;;;18.50;34.50;;;;;;5072488;28;20219;-64
2023/02/28 10:46:15;;;;;;;3.08;1.60;;;18.50;34.50;;;;;;5071894;28;20244;-64
2023/02/28 10:48:44;;;;;;;6.28;1.90;;;18.50;35.20;;;;;;5072050;28;20234;-64
2023/02/28 10:51:14;;;;;;;3.25;1.90;;;18.50;34.50;;;;;;5072130;28;20190;-63
2023/02/28 10:53:50;;;;;;;5.00;2.08;;;18.50;34.50;;;;;;5071690;28;20801;-65
2023/02/28 10:56:21;;;;;;;3.67;1.70;;;18.50;34.60;;;;;;5072154;28;20188;-64
2023/02/28 10:58:54;;;;;;;2.90;1.55;;;18.50;34.50;;;;;;5071541;28;20210;-62
2023/02/28 11:01:23;;;;;;;8.02;1.83;;;18.50;34.60;;;;;;5071006;28;20195;-65
2023/02/28 11:03:51;;;;;;;4.90;1.98;;;18.50;34.60;;;;;;5072043;28;20226;-64
2023/02/28 11:06:23;;;;;;;3.60;1.67;;;18.50;35.20;;;;;;5071493;28;20198;-65
2023/02/28 11:08:53;;;;;;;5.75;2.17;;;18.50;34.60;;;;;;5071645;28;20238;-63
2023/02/28 11:11:23;;;;;;;7.20;1.98;;;18.50;34.60;;;;;;5071316;28;20191;-62
2023/02/28 11:13:53;;;;;;;5.95;1.70;;;18.60;34.80;;;;;;5071623;28;20245;-65
2023/02/28 11:16:22;;;;;;;10.43;1.85;;;18.50;34.80;;;;;;5070689;28;20601;-63
2023/02/28 11:18:51;;;;;;;5.80;1.60;;;18.50;35.10;;;;;;5071516;28;20567;-67
2023/02/28 11:21:23;;;;;;;4.78;1.73;;;18.60;35.20;;;;;;5070643;28;20242;-63
2023/02/28 11:23:54;;;;;;;7.55;1.73;;;18.60;35.20;;;;;;5071672;28;20223;-67
2023/02/28 11:26:43;;;;;;;5.07;1.63;;;18.60;35.10;;;;;;5070012;28;20203;-65
2023/02/28 11:29:16;;;;;;;6.57;1.85;;;18.60;35.00;;;;;;5069261;28;20258;-66
2023/02/28 11:31:44;;;;;;;5.75;1.50;;;18.60;35.00;;;;;;5066963;28;20264;-63
2023/02/28 11:34:27;;;;;;;3.40;1.58;;;18.60;34.90;;;;;;5068428;28;20287;-64
2023/02/28 11:36:57;;;;;;;5.40;1.60;;;18.60;34.90;;;;;;5067421;28;20624;-61
2023/02/28 11:39:26;;;;;;;9.48;1.60;;;18.70;35.00;;;;;;5068126;28;20218;-62
2023/02/28 11:42:05;;;;;;;6.95;1.50;;;18.70;35.00;;;;;;5067407;28;20284;-64
2023/02/28 11:44:54;;;;;;;6.15;1.58;;;18.70;34.90;;;;;;5067920;28;20663;-62
2023/02/28 11:47:31;;;;;;;6.43;1.55;;;18.70;34.90;;;;;;5068298;28;20231;-62
2023/02/28 11:50:15;;;;;;;5.68;1.58;;;18.70;34.90;;;;;;5068478;28;20806;-65
2023/02/28 11:52:49;;;;;;;4.95;1.42;;;18.70;34.90;;;;;;5068654;28;20206;-63
2023/02/28 11:55:21;;;;;;;7.20;1.52;;;18.70;34.80;;;;;;5070327;28;20263;-63
2023/02/28 11:58:12;;;;;;;5.75;2.03;;;18.70;34.90;;;;;;5070363;28;20186;-63
2023/02/28 12:00:53;;;;;;;7.38;1.70;;;18.80;35.00;;;;;;5070148;28;20569;-67
2023/02/28 12:03:30;;;;;;;4.97;1.75;;;18.80;35.00;;;;;;5069758;28;20240;-65
2023/02/28 12:06:09;;;;;;;5.80;1.55;;;18.80;34.90;;;;;;5070535;28;20199;-63
2023/02/28 12:08:49;;;;;;;7.00;2.15;;;18.80;34.90;;;;;;5069239;28;20712;-67
2023/02/28 12:11:29;;;;;;;5.53;1.55;;;18.80;34.90;;;;;;5068532;28;20260;-68
2023/02/28 12:14:07;;;;;;;3.28;1.17;;;18.80;35.00;;;;;;5067357;28;20283;-67
2023/02/28 12:16:46;;;;;;;6.40;1.40;;;18.80;35.00;;;;;;5068211;28;20202;-66
2023/02/28 12:19:23;;;;;;;3.83;1.40;;;18.80;35.10;;;;;;5070630;28;20214;-66
2023/02/28 12:22:18;;;;;;;4.30;1.23;;;18.90;35.20;;;;;;5070293;28;20236;-63
2023/02/28 12:25:16;;;;;;;5.40;1.40;;;18.80;35.00;;;;;;5070417;28;20689;-66
2023/02/28 12:27:46;;;;;;;8.55;1.60;;;18.90;35.10;;;;;;5027868;28;20192;-67
2023/02/28 12:30:19;;;;;;;4.15;1.30;;;18.90;35.10;;;;;;5027221;28;20282;-62
2023/02/28 12:32:49;;;;;;;4.03;1.50;;;18.90;35.00;;;;;;5027924;28;20287;-63
2023/02/28 12:35:20;;;;;;;5.75;1.80;;;18.90;35.00;;;;;;5028125;28;20655;-67
2023/02/28 12:37:51;;;;;;;3.70;1.40;;;18.90;35.00;;;;;;5027805;28;20188;-66
2023/02/28 12:40:22;;;;;;;5.38;1.42;;;18.90;35.00;;;;;;5027817;28;20274;-65
2023/02/28 12:42:52;;;;;;;3.65;1.40;;;18.90;35.00;;;;;;5023655;28;20200;-66
2023/02/28 12:45:22;;;;;;;3.33;1.40;;;18.90;35.00;;;;;;5012136;28;20606;-65
2023/02/28 12:47:55;;;;;;;4.25;1.40;;;19.00;35.00;;;;;;5016948;28;20792;-64
2023/02/28 12:50:25;;;;;;;3.10;1.40;;;19.00;35.00;;;;;;5027558;28;20270;-62
2023/02/28 12:52:59;;;;;;;6.30;2.15;;;19.00;35.00;;;;;;5029064;28;20204;-63
2023/02/28 12:55:36;;;;;;;5.60;1.50;;;19.00;35.00;;;;;;5026794;28;20643;-65
2023/02/28 12:58:14;;;;;;;5.25;1.80;;;19.00;35.10;;;;;;5033651;28;20201;-63
2023/02/28 13:00:59;;;;;;;10.95;1.58;;;19.00;35.20;;;;;;5007185;28;20212;-62
2023/02/28 13:03:49;;;;;;;4.80;1.48;;;19.10;35.40;;;;;;5025182;28;20230;-64
2023/02/28 13:06:37;;;;;;;5.65;1.63;;;19.10;35.40;;;;;;5059504;28;20690;-64